sensor_id;sensor_type;location;lat;lon;timestamp;pressure;altitude;pressure_sealevel;temperature;humidity
51496;BME280;37572;52.094;4.870;2023-05-31T00:02:13;102761.16;;;16.21;55.63
51496;BME280;37572;52.094;4.870;2023-05-31T00:04:38;102760.47;;;16.19;55.95
51496;BME280;37572;52.094;4.870;2023-05-31T00:07:05;102758.06;;;16.16;55.74
51496;BME280;37572;52.094;4.870;2023-05-31T00:09:31;102758.06;;;16.16;55.71
51496;BME280;37572;52.094;4.870;2023-05-31T00:11:56;102761.88;;;16.14;55.74
51496;BME280;37572;52.094;4.870;2023-05-31T00:14:21;102765.72;;;16.11;55.87
51496;BME280;37572;52.094;4.870;2023-05-31T00:16:47;102753.28;;;16.10;55.90
51496;BME280;37572;52.094;4.870;2023-05-31T00:19:12;102753.41;;;16.08;55.74
51496;BME280;37572;52.094;4.870;2023-05-31T00:21:37;102752.72;;;16.06;55.84
51496;BME280;37572;52.094;4.870;2023-05-31T00:24:03;102752.16;;;16.03;55.92
51496;BME280;37572;52.094;4.870;2023-05-31T00:26:28;102757.69;;;16.01;55.84
51496;BME280;37572;52.094;4.870;2023-05-31T00:28:53;102752.44;;;16.00;55.98
51496;BME280;37572;52.094;4.870;2023-05-31T00:31:19;102751.63;;;15.99;55.80
51496;BME280;37572;52.094;4.870;2023-05-31T00:33:44;102750.06;;;15.97;55.96
51496;BME280;37572;52.094;4.870;2023-05-31T00:36:10;102749.34;;;15.95;55.93
51496;BME280;37572;52.094;4.870;2023-05-31T00:38:35;102750.34;;;15.94;56.17
51496;BME280;37572;52.094;4.870;2023-05-31T00:41:00;102751.34;;;15.93;55.97
51496;BME280;37572;52.094;4.870;2023-05-31T00:43:25;102745.28;;;15.90;55.83
51496;BME280;37572;52.094;4.870;2023-05-31T00:45:51;102752.47;;;15.90;55.78
51496;BME280;37572;52.094;4.870;2023-05-31T00:48:17;102748.25;;;15.87;55.91
51496;BME280;37572;52.094;4.870;2023-05-31T00:50:42;102745.69;;;15.86;56.21
51496;BME280;37572;52.094;4.870;2023-05-31T00:53:08;102744.00;;;15.85;55.95
51496;BME280;37572;52.094;4.870;2023-05-31T00:55:34;102743.16;;;15.84;56.13
51496;BME280;37572;52.094;4.870;2023-05-31T00:58:01;102757.56;;;15.83;56.05
51496;BME280;37572;52.094;4.870;2023-05-31T01:00:27;102760.41;;;15.82;56.19
51496;BME280;37572;52.094;4.870;2023-05-31T01:02:53;102759.69;;;15.80;55.97
51496;BME280;37572;52.094;4.870;2023-05-31T01:05:19;102753.50;;;15.79;56.11
51496;BME280;37572;52.094;4.870;2023-05-31T01:07:44;102756.19;;;15.79;56.07
51496;BME280;37572;52.094;4.870;2023-05-31T01:10:10;102759.00;;;15.78;55.95
51496;BME280;37572;52.094;4.870;2023-05-31T01:15:26;102757.53;;;15.73;56.09
51496;BME280;37572;52.094;4.870;2023-05-31T01:18:19;102756.00;;;15.71;56.29
51496;BME280;37572;52.094;4.870;2023-05-31T01:20:50;102749.22;;;15.67;56.19
51496;BME280;37572;52.094;4.870;2023-05-31T01:26:42;102757.72;;;15.62;56.35
51496;BME280;37572;52.094;4.870;2023-05-31T01:29:13;102758.84;;;15.60;56.40
51496;BME280;37572;52.094;4.870;2023-05-31T01:31:39;102755.59;;;15.56;56.52
51496;BME280;37572;52.094;4.870;2023-05-31T01:34:05;102760.13;;;15.56;56.15
51496;BME280;37572;52.094;4.870;2023-05-31T01:36:31;102761.94;;;15.55;56.30
51496;BME280;37572;52.094;4.870;2023-05-31T01:38:57;102766.34;;;15.56;56.08
51496;BME280;37572;52.094;4.870;2023-05-31T01:41:24;102758.56;;;15.53;56.29
51496;BME280;37572;52.094;4.870;2023-05-31T01:43:52;102761.38;;;15.51;56.42
51496;BME280;37572;52.094;4.870;2023-05-31T01:46:18;102750.78;;;15.50;56.20
51496;BME280;37572;52.094;4.870;2023-05-31T01:48:44;102751.66;;;15.50;56.27
51496;BME280;37572;52.094;4.870;2023-05-31T01:51:11;102754.34;;;15.50;56.29
51496;BME280;37572;52.094;4.870;2023-05-31T01:53:39;102754.47;;;15.49;56.38
51496;BME280;37572;52.094;4.870;2023-05-31T01:56:07;102754.75;;;15.46;56.37
51496;BME280;37572;52.094;4.870;2023-05-31T01:58:34;102751.38;;;15.44;56.39
51496;BME280;37572;52.094;4.870;2023-05-31T02:01:01;102746.28;;;15.41;56.37
51496;BME280;37572;52.094;4.870;2023-05-31T02:03:26;102752.63;;;15.40;56.29
51496;BME280;37572;52.094;4.870;2023-05-31T02:05:59;102747.53;;;15.36;56.57
51496;BME280;37572;52.094;4.870;2023-05-31T02:08:25;102744.28;;;15.33;56.59
51496;BME280;37572;52.094;4.870;2023-05-31T02:10:51;102735.53;;;15.31;56.54
51496;BME280;37572;52.094;4.870;2023-05-31T02:13:18;102746.41;;;15.29;56.53
51496;BME280;37572;52.094;4.870;2023-05-31T02:15:43;102744.84;;;15.27;56.62
51496;BME280;37572;52.094;4.870;2023-05-31T02:18:08;102746.81;;;15.25;56.47
51496;BME280;37572;52.094;4.870;2023-05-31T02:20:34;102746.13;;;15.23;56.63
51496;BME280;37572;52.094;4.870;2023-05-31T02:22:59;102750.78;;;15.21;56.71
51496;BME280;37572;52.094;4.870;2023-05-31T02:25:25;102748.09;;;15.21;56.63
51496;BME280;37572;52.094;4.870;2023-05-31T02:27:50;102749.22;;;15.18;56.65
51496;BME280;37572;52.094;4.870;2023-05-31T02:30:15;102746.81;;;15.15;56.60
51496;BME280;37572;52.094;4.870;2023-05-31T02:32:41;102748.94;;;15.11;56.34
51496;BME280;37572;52.094;4.870;2023-05-31T02:35:08;102742.16;;;15.07;56.77
51496;BME280;37572;52.094;4.870;2023-05-31T02:37:34;102738.88;;;15.04;56.91
51496;BME280;37572;52.094;4.870;2023-05-31T02:40:01;102732.94;;;15.00;56.66
51496;BME280;37572;52.094;4.870;2023-05-31T02:42:26;102741.13;;;14.98;56.62
51496;BME280;37572;52.094;4.870;2023-05-31T02:44:51;102734.38;;;14.94;57.13
51496;BME280;37572;52.094;4.870;2023-05-31T02:47:17;102734.63;;;14.91;56.64
51496;BME280;37572;52.094;4.870;2023-05-31T02:49:42;102737.47;;;14.90;56.63
51496;BME280;37572;52.094;4.870;2023-05-31T02:52:08;102728.00;;;14.86;56.45
51496;BME280;37572;52.094;4.870;2023-05-31T02:54:33;102730.09;;;14.82;56.47
51496;BME280;37572;52.094;4.870;2023-05-31T02:56:58;102736.59;;;14.79;56.68
51496;BME280;37572;52.094;4.870;2023-05-31T02:59:24;102726.00;;;14.78;56.66
51496;BME280;37572;52.094;4.870;2023-05-31T03:01:50;102723.44;;;14.76;56.72
51496;BME280;37572;52.094;4.870;2023-05-31T03:04:16;102727.09;;;14.75;56.82
51496;BME280;37572;52.094;4.870;2023-05-31T03:06:41;102729.09;;;14.73;56.73
51496;BME280;37572;52.094;4.870;2023-05-31T03:09:07;102733.88;;;14.70;56.82
51496;BME280;37572;52.094;4.870;2023-05-31T03:11:32;102727.81;;;14.68;56.79
51496;BME280;37572;52.094;4.870;2023-05-31T03:13:58;102721.00;;;14.64;56.90
51496;BME280;37572;52.094;4.870;2023-05-31T03:16:23;102716.78;;;14.61;56.83
51496;BME280;37572;52.094;4.870;2023-05-31T03:18:50;102726.66;;;14.60;56.83
51496;BME280;37572;52.094;4.870;2023-05-31T03:21:15;102720.69;;;14.57;56.87
51496;BME280;37572;52.094;4.870;2023-05-31T03:23:41;102725.34;;;14.55;56.75
51496;BME280;37572;52.094;4.870;2023-05-31T03:26:06;102726.34;;;14.54;56.94
51496;BME280;37572;52.094;4.870;2023-05-31T03:28:31;102714.75;;;14.53;56.89
51496;BME280;37572;52.094;4.870;2023-05-31T03:30:57;102721.94;;;14.53;57.01
51496;BME280;37572;52.094;4.870;2023-05-31T03:33:22;102721.09;;;14.52;57.04
51496;BME280;37572;52.094;4.870;2023-05-31T03:35:47;102720.25;;;14.52;56.99
51496;BME280;37572;52.094;4.870;2023-05-31T03:38:13;102716.72;;;14.51;57.18
51496;BME280;37572;52.094;4.870;2023-05-31T03:40:38;102719.41;;;14.51;57.17
51496;BME280;37572;52.094;4.870;2023-05-31T03:43:03;102723.91;;;14.51;57.19
51496;BME280;37572;52.094;4.870;2023-05-31T03:45:29;102726.59;;;14.51;57.11
51496;BME280;37572;52.094;4.870;2023-05-31T03:47:55;102719.66;;;14.48;57.23
51496;BME280;37572;52.094;4.870;2023-05-31T03:50:20;102736.88;;;14.46;57.15
51496;BME280;37572;52.094;4.870;2023-05-31T03:52:45;102731.53;;;14.46;57.40
51496;BME280;37572;52.094;4.870;2023-05-31T03:55:11;102738.56;;;14.47;57.27
51496;BME280;37572;52.094;4.870;2023-05-31T03:57:36;102737.03;;;14.44;57.49
51496;BME280;37572;52.094;4.870;2023-05-31T04:00:01;102736.16;;;14.43;57.64
51496;BME280;37572;52.094;4.870;2023-05-31T04:02:27;102739.84;;;14.42;57.86
51496;BME280;37572;52.094;4.870;2023-05-31T04:04:53;102740.66;;;14.43;57.83
51496;BME280;37572;52.094;4.870;2023-05-31T04:07:18;102741.38;;;14.45;58.10
51496;BME280;37572;52.094;4.870;2023-05-31T04:09:43;102739.44;;;14.47;58.30
51496;BME280;37572;52.094;4.870;2023-05-31T04:12:08;102746.22;;;14.51;58.23
51496;BME280;37572;52.094;4.870;2023-05-31T04:14:34;102738.47;;;14.58;58.26
51496;BME280;37572;52.094;4.870;2023-05-31T04:16:59;102741.63;;;14.63;58.14
51496;BME280;37572;52.094;4.870;2023-05-31T04:19:24;102739.50;;;14.67;58.33
51496;BME280;37572;52.094;4.870;2023-05-31T04:21:50;102741.09;;;14.69;58.39
51496;BME280;37572;52.094;4.870;2023-05-31T04:24:15;102746.03;;;14.74;58.38
51496;BME280;37572;52.094;4.870;2023-05-31T04:26:41;102740.25;;;14.78;58.36
51496;BME280;37572;52.094;4.870;2023-05-31T04:29:06;102738.88;;;14.84;58.39
51496;BME280;37572;52.094;4.870;2023-05-31T04:31:32;102742.81;;;14.90;58.36
51496;BME280;37572;52.094;4.870;2023-05-31T04:34:04;102742.97;;;14.98;58.28
51496;BME280;37572;52.094;4.870;2023-05-31T04:36:29;102745.97;;;15.05;58.17
51496;BME280;37572;52.094;4.870;2023-05-31T04:38:57;102746.94;;;15.13;58.05
51496;BME280;37572;52.094;4.870;2023-05-31T04:41:23;102749.09;;;15.20;58.02
51496;BME280;37572;52.094;4.870;2023-05-31T04:43:51;102743.31;;;15.24;57.92
51496;BME280;37572;52.094;4.870;2023-05-31T04:46:17;102745.41;;;15.30;57.82
51496;BME280;37572;52.094;4.870;2023-05-31T04:48:44;102750.09;;;15.38;58.31
51496;BME280;37572;52.094;4.870;2023-05-31T04:51:09;102743.16;;;15.45;57.74
51496;BME280;37572;52.094;4.870;2023-05-31T04:53:34;102751.34;;;15.53;57.77
51496;BME280;37572;52.094;4.870;2023-05-31T04:56:00;102742.59;;;15.61;57.77
51496;BME280;37572;52.094;4.870;2023-05-31T04:58:30;102749.63;;;15.72;57.34
51496;BME280;37572;52.094;4.870;2023-05-31T05:00:56;102746.81;;;15.83;57.50
51496;BME280;37572;52.094;4.870;2023-05-31T05:03:21;102743.28;;;15.93;57.30
51496;BME280;37572;52.094;4.870;2023-05-31T05:05:46;102748.50;;;16.04;57.27
51496;BME280;37572;52.094;4.870;2023-05-31T05:08:12;102750.16;;;16.15;56.96
51496;BME280;37572;52.094;4.870;2023-05-31T05:10:38;102747.28;;;16.26;57.10
51496;BME280;37572;52.094;4.870;2023-05-31T05:13:03;102742.56;;;16.38;56.97
51496;BME280;37572;52.094;4.870;2023-05-31T05:15:28;102737.00;;;16.49;57.00
51496;BME280;37572;52.094;4.870;2023-05-31T05:17:54;102732.44;;;16.59;56.80
51496;BME280;37572;52.094;4.870;2023-05-31T05:20:19;102741.13;;;16.71;56.78
51496;BME280;37572;52.094;4.870;2023-05-31T05:22:49;102739.91;;;16.83;56.73
51496;BME280;37572;52.094;4.870;2023-05-31T05:25:16;102739.91;;;16.93;56.51
51496;BME280;37572;52.094;4.870;2023-05-31T05:27:41;102740.69;;;17.04;56.20
51496;BME280;37572;52.094;4.870;2023-05-31T05:30:07;102744.31;;;17.12;56.34
51496;BME280;37572;52.094;4.870;2023-05-31T05:32:32;102747.78;;;17.23;55.98
51496;BME280;37572;52.094;4.870;2023-05-31T05:34:58;102748.69;;;17.31;56.12
51496;BME280;37572;52.094;4.870;2023-05-31T05:37:23;102740.41;;;17.43;55.75
51496;BME280;37572;52.094;4.870;2023-05-31T05:39:48;102746.53;;;17.53;55.73
51496;BME280;37572;52.094;4.870;2023-05-31T05:42:13;102746.59;;;17.61;55.56
51496;BME280;37572;52.094;4.870;2023-05-31T05:44:39;102748.38;;;17.70;55.38
51496;BME280;37572;52.094;4.870;2023-05-31T05:47:05;102753.81;;;17.79;54.95
51496;BME280;37572;52.094;4.870;2023-05-31T05:49:30;102752.59;;;17.91;54.78
51496;BME280;37572;52.094;4.870;2023-05-31T05:51:56;102755.72;;;18.04;54.85
51496;BME280;37572;52.094;4.870;2023-05-31T05:54:21;102745.81;;;18.13;54.29
51496;BME280;37572;52.094;4.870;2023-05-31T05:56:46;102746.53;;;18.23;54.42
51496;BME280;37572;52.094;4.870;2023-05-31T05:59:12;102754.19;;;18.36;54.00
51496;BME280;37572;52.094;4.870;2023-05-31T06:01:37;102751.06;;;18.49;53.83
51496;BME280;37572;52.094;4.870;2023-05-31T06:04:02;102752.13;;;18.64;53.76
51496;BME280;37572;52.094;4.870;2023-05-31T06:06:27;102748.81;;;18.79;53.46
51496;BME280;37572;52.094;4.870;2023-05-31T06:08:53;102748.56;;;18.90;53.12
51496;BME280;37572;52.094;4.870;2023-05-31T06:11:18;102760.88;;;19.01;52.70
51496;BME280;37572;52.094;4.870;2023-05-31T06:13:44;102765.09;;;19.12;52.51
51496;BME280;37572;52.094;4.870;2023-05-31T06:16:10;102763.63;;;19.26;52.70
51496;BME280;37572;52.094;4.870;2023-05-31T06:18:35;102765.66;;;19.40;52.36
51496;BME280;37572;52.094;4.870;2023-05-31T06:21:00;102758.94;;;19.52;51.86
51496;BME280;37572;52.094;4.870;2023-05-31T06:23:26;102758.75;;;19.62;51.62
51496;BME280;37572;52.094;4.870;2023-05-31T06:25:51;102751.31;;;19.72;51.18
51496;BME280;37572;52.094;4.870;2023-05-31T06:28:17;102752.50;;;19.86;51.23
51496;BME280;37572;52.094;4.870;2023-05-31T06:30:42;102751.16;;;19.99;50.84
51496;BME280;37572;52.094;4.870;2023-05-31T06:33:08;102752.13;;;20.14;50.55
51496;BME280;37572;52.094;4.870;2023-05-31T06:35:33;102752.75;;;20.32;50.58
51496;BME280;37572;52.094;4.870;2023-05-31T06:37:58;102762.13;;;20.53;50.40
51496;BME280;37572;52.094;4.870;2023-05-31T06:40:23;102760.75;;;20.74;49.77
51496;BME280;37572;52.094;4.870;2023-05-31T06:42:49;102751.13;;;20.94;49.47
51496;BME280;37572;52.094;4.870;2023-05-31T06:45:14;102759.13;;;21.19;49.41
51496;BME280;37572;52.094;4.870;2023-05-31T06:47:39;102754.72;;;21.41;48.42
51496;BME280;37572;52.094;4.870;2023-05-31T06:50:05;102753.41;;;21.60;47.94
51496;BME280;37572;52.094;4.870;2023-05-31T06:52:31;102751.03;;;21.80;47.57
51496;BME280;37572;52.094;4.870;2023-05-31T06:54:56;102753.00;;;22.01;47.13
51496;BME280;37572;52.094;4.870;2023-05-31T06:57:21;102749.09;;;22.18;46.50
51496;BME280;37572;52.094;4.870;2023-05-31T06:59:47;102754.47;;;22.42;46.37
51496;BME280;37572;52.094;4.870;2023-05-31T07:02:12;102757.69;;;22.67;46.02
51496;BME280;37572;52.094;4.870;2023-05-31T07:04:37;102767.38;;;22.91;45.67
51496;BME280;37572;52.094;4.870;2023-05-31T07:07:03;102754.41;;;23.08;44.97
51496;BME280;37572;52.094;4.870;2023-05-31T07:09:29;102763.38;;;23.23;44.38
51496;BME280;37572;52.094;4.870;2023-05-31T07:11:54;102758.91;;;23.37;43.83
51496;BME280;37572;52.094;4.870;2023-05-31T07:14:20;102753.81;;;23.56;43.81
51496;BME280;37572;52.094;4.870;2023-05-31T07:16:47;102752.19;;;23.83;44.01
51496;BME280;37572;52.094;4.870;2023-05-31T07:19:12;102742.53;;;24.09;43.31
51496;BME280;37572;52.094;4.870;2023-05-31T07:21:37;102746.19;;;24.29;42.21
51496;BME280;37572;52.094;4.870;2023-05-31T07:24:02;102752.13;;;24.46;42.27
51496;BME280;37572;52.094;4.870;2023-05-31T07:26:28;102740.94;;;24.69;42.23
51496;BME280;37572;52.094;4.870;2023-05-31T07:28:53;102746.84;;;24.86;41.67
51496;BME280;37572;52.094;4.870;2023-05-31T07:31:19;102747.75;;;25.07;41.31
51496;BME280;37572;52.094;4.870;2023-05-31T07:33:45;102741.06;;;25.23;41.33
51496;BME280;37572;52.094;4.870;2023-05-31T07:36:11;102750.16;;;25.43;40.51
51496;BME280;37572;52.094;4.870;2023-05-31T07:38:36;102747.41;;;25.57;40.10
51496;BME280;37572;52.094;4.870;2023-05-31T07:41:02;102753.69;;;25.71;39.71
51496;BME280;37572;52.094;4.870;2023-05-31T07:43:27;102747.59;;;25.82;39.86
51496;BME280;37572;52.094;4.870;2023-05-31T07:45:55;102746.56;;;25.90;39.60
51496;BME280;37572;52.094;4.870;2023-05-31T07:48:21;102743.59;;;25.98;39.00
51496;BME280;37572;52.094;4.870;2023-05-31T07:50:47;102739.22;;;25.83;38.78
51496;BME280;37572;52.094;4.870;2023-05-31T07:53:13;102736.50;;;25.70;39.33
51496;BME280;37572;52.094;4.870;2023-05-31T07:55:38;102740.25;;;25.69;39.88
51496;BME280;37572;52.094;4.870;2023-05-31T07:58:04;102730.19;;;25.63;39.88
51496;BME280;37572;52.094;4.870;2023-05-31T08:00:29;102732.72;;;25.44;40.09
51496;BME280;37572;52.094;4.870;2023-05-31T08:02:55;102723.66;;;25.24;40.51
51496;BME280;37572;52.094;4.870;2023-05-31T08:05:20;102728.06;;;25.11;40.74
51496;BME280;37572;52.094;4.870;2023-05-31T08:07:47;102730.34;;;25.01;39.99
51496;BME280;37572;52.094;4.870;2023-05-31T08:10:14;102728.66;;;24.87;40.81
51496;BME280;37572;52.094;4.870;2023-05-31T08:12:40;102728.84;;;24.79;40.67
51496;BME280;37572;52.094;4.870;2023-05-31T08:15:06;102730.88;;;24.63;40.75
51496;BME280;37572;52.094;4.870;2023-05-31T08:17:31;102730.56;;;24.45;41.37
51496;BME280;37572;52.094;4.870;2023-05-31T08:19:57;102733.84;;;24.27;41.90
51496;BME280;37572;52.094;4.870;2023-05-31T08:22:22;102723.03;;;24.05;42.19
51496;BME280;37572;52.094;4.870;2023-05-31T08:24:47;102727.31;;;23.86;42.52
51496;BME280;37572;52.094;4.870;2023-05-31T08:27:13;102728.25;;;23.72;42.84
51496;BME280;37572;52.094;4.870;2023-05-31T08:29:40;102726.88;;;23.61;43.33
51496;BME280;37572;52.094;4.870;2023-05-31T08:32:05;102724.31;;;23.53;43.58
51496;BME280;37572;52.094;4.870;2023-05-31T08:34:30;102727.84;;;23.46;43.67
51496;BME280;37572;52.094;4.870;2023-05-31T08:36:56;102718.00;;;23.45;44.02
51496;BME280;37572;52.094;4.870;2023-05-31T08:39:22;102720.69;;;23.45;44.38
51496;BME280;37572;52.094;4.870;2023-05-31T08:41:57;102715.03;;;23.40;44.25
51496;BME280;37572;52.094;4.870;2023-05-31T08:44:24;102722.72;;;23.37;43.99
51496;BME280;37572;52.094;4.870;2023-05-31T08:46:49;102713.25;;;23.33;44.36
51496;BME280;37572;52.094;4.870;2023-05-31T08:49:15;102712.88;;;23.36;44.58
51496;BME280;37572;52.094;4.870;2023-05-31T08:51:48;102716.03;;;23.39;44.13
51496;BME280;37572;52.094;4.870;2023-05-31T08:54:14;102719.88;;;23.45;44.60
51496;BME280;37572;52.094;4.870;2023-05-31T08:56:41;102721.78;;;23.51;44.60
51496;BME280;37572;52.094;4.870;2023-05-31T08:59:10;102714.53;;;23.58;44.02
51496;BME280;37572;52.094;4.870;2023-05-31T09:01:38;102712.69;;;23.65;43.90
51496;BME280;37572;52.094;4.870;2023-05-31T09:04:04;102713.97;;;23.70;44.08
51496;BME280;37572;52.094;4.870;2023-05-31T09:06:31;102716.50;;;23.71;43.90
51496;BME280;37572;52.094;4.870;2023-05-31T09:08:56;102712.31;;;23.69;43.63
51496;BME280;37572;52.094;4.870;2023-05-31T09:11:22;102709.59;;;23.69;44.13
51496;BME280;37572;52.094;4.870;2023-05-31T09:13:48;102696.38;;;23.65;43.92
51496;BME280;37572;52.094;4.870;2023-05-31T09:16:14;102709.59;;;23.69;44.04
51496;BME280;37572;52.094;4.870;2023-05-31T09:18:39;102708.13;;;23.73;43.46
51496;BME280;37572;52.094;4.870;2023-05-31T09:21:13;102701.09;;;23.78;43.76
51496;BME280;37572;52.094;4.870;2023-05-31T09:23:57;102700.69;;;23.81;43.15
51496;BME280;37572;52.094;4.870;2023-05-31T09:26:24;102700.09;;;23.86;43.22
51496;BME280;37572;52.094;4.870;2023-05-31T09:28:51;102698.03;;;23.88;42.97
51496;BME280;37572;52.094;4.870;2023-05-31T09:31:17;102690.31;;;23.92;43.55
51496;BME280;37572;52.094;4.870;2023-05-31T09:33:44;102694.09;;;23.97;43.33
51496;BME280;37572;52.094;4.870;2023-05-31T09:36:11;102689.34;;;24.06;43.43
51496;BME280;37572;52.094;4.870;2023-05-31T09:38:38;102686.88;;;24.18;43.62
51496;BME280;37572;52.094;4.870;2023-05-31T09:41:18;102684.19;;;24.25;43.78
51496;BME280;37572;52.094;4.870;2023-05-31T09:43:48;102690.72;;;24.30;43.84
51496;BME280;37572;52.094;4.870;2023-05-31T09:46:15;102684.25;;;24.38;44.06
51496;BME280;37572;52.094;4.870;2023-05-31T09:48:45;102688.28;;;24.49;43.82
51496;BME280;37572;52.094;4.870;2023-05-31T09:51:12;102686.44;;;24.56;44.06
51496;BME280;37572;52.094;4.870;2023-05-31T09:53:44;102685.63;;;24.62;44.55
51496;BME280;37572;52.094;4.870;2023-05-31T09:56:16;102685.81;;;24.61;44.19
51496;BME280;37572;52.094;4.870;2023-05-31T09:58:42;102685.97;;;24.52;43.79
51496;BME280;37572;52.094;4.870;2023-05-31T10:01:09;102683.88;;;24.48;44.42
51496;BME280;37572;52.094;4.870;2023-05-31T10:03:35;102683.44;;;24.44;44.81
51496;BME280;37572;52.094;4.870;2023-05-31T10:06:03;102694.53;;;24.43;44.97
51496;BME280;37572;52.094;4.870;2023-05-31T10:08:29;102686.97;;;24.38;44.74
51496;BME280;37572;52.094;4.870;2023-05-31T10:10:57;102676.72;;;24.33;45.39
51496;BME280;37572;52.094;4.870;2023-05-31T10:13:26;102682.78;;;24.35;45.54
51496;BME280;37572;52.094;4.870;2023-05-31T10:15:54;102674.84;;;24.41;45.88
51496;BME280;37572;52.094;4.870;2023-05-31T10:18:21;102675.50;;;24.49;45.65
51496;BME280;37572;52.094;4.870;2023-05-31T10:20:52;102669.44;;;24.54;45.31
51496;BME280;37572;52.094;4.870;2023-05-31T10:23:24;102672.63;;;24.58;45.87
51496;BME280;37572;52.094;4.870;2023-05-31T10:28:17;102672.44;;;24.66;45.55
51496;BME280;37572;52.094;4.870;2023-05-31T10:30:49;102668.47;;;24.68;44.96
51496;BME280;37572;52.094;4.870;2023-05-31T10:33:17;102659.25;;;24.69;45.31
51496;BME280;37572;52.094;4.870;2023-05-31T10:35:44;102661.34;;;24.74;45.50
51496;BME280;37572;52.094;4.870;2023-05-31T10:38:10;102655.28;;;24.79;45.30
51496;BME280;37572;52.094;4.870;2023-05-31T10:40:53;102648.56;;;24.81;45.10
51496;BME280;37572;52.094;4.870;2023-05-31T10:43:38;102654.47;;;24.85;45.37
51496;BME280;37572;52.094;4.870;2023-05-31T10:46:16;102652.78;;;24.84;45.17
51496;BME280;37572;52.094;4.870;2023-05-31T10:48:52;102653.41;;;24.86;45.33
51496;BME280;37572;52.094;4.870;2023-05-31T10:51:19;102647.97;;;24.86;44.48
51496;BME280;37572;52.094;4.870;2023-05-31T10:53:46;102643.34;;;24.86;45.09
51496;BME280;37572;52.094;4.870;2023-05-31T10:56:15;102644.00;;;24.88;45.38
51496;BME280;37572;52.094;4.870;2023-05-31T10:58:43;102643.78;;;24.97;45.29
51496;BME280;37572;52.094;4.870;2023-05-31T11:01:13;102638.56;;;25.08;45.06
51496;BME280;37572;52.094;4.870;2023-05-31T11:03:48;102635.81;;;25.15;45.02
51496;BME280;37572;52.094;4.870;2023-05-31T11:06:16;102633.72;;;25.17;45.06
51496;BME280;37572;52.094;4.870;2023-05-31T11:14:08;102631.63;;;25.33;44.78
51496;BME280;37572;52.094;4.870;2023-05-31T11:19:21;102624.72;;;25.37;44.29
51496;BME280;37572;52.094;4.870;2023-05-31T11:21:55;102624.72;;;25.37;43.89
51496;BME280;37572;52.094;4.870;2023-05-31T11:24:34;102615.47;;;25.38;44.03
51496;BME280;37572;52.094;4.870;2023-05-31T11:27:02;102623.84;;;25.43;44.25
51496;BME280;37572;52.094;4.870;2023-05-31T11:32:22;102620.91;;;25.58;44.28
51496;BME280;37572;52.094;4.870;2023-05-31T11:34:55;102621.94;;;25.63;43.94
51496;BME280;37572;52.094;4.870;2023-05-31T11:37:29;102626.97;;;25.66;43.90
51496;BME280;37572;52.094;4.870;2023-05-31T11:39:55;102620.25;;;25.69;43.80
51496;BME280;37572;52.094;4.870;2023-05-31T11:42:21;102612.69;;;25.71;43.81
51496;BME280;37572;52.094;4.870;2023-05-31T11:44:49;102626.09;;;25.73;43.65
51496;BME280;37572;52.094;4.870;2023-05-31T11:47:25;102611.81;;;25.77;43.87
51496;BME280;37572;52.094;4.870;2023-05-31T11:49:50;102610.56;;;25.87;44.18
51496;BME280;37572;52.094;4.870;2023-05-31T11:52:17;102613.66;;;26.03;43.66
51496;BME280;37572;52.094;4.870;2023-05-31T11:54:44;102615.25;;;26.18;42.94
51496;BME280;37572;52.094;4.870;2023-05-31T11:57:10;102616.44;;;26.35;43.02
51496;BME280;37572;52.094;4.870;2023-05-31T11:59:37;102608.34;;;26.54;42.65
51496;BME280;37572;52.094;4.870;2023-05-31T12:02:07;102601.72;;;26.75;42.61
51496;BME280;37572;52.094;4.870;2023-05-31T12:07:01;102598.19;;;27.18;41.21
51496;BME280;37572;52.094;4.870;2023-05-31T12:09:27;102590.28;;;27.35;40.67
51496;BME280;37572;52.094;4.870;2023-05-31T12:11:55;102585.25;;;27.50;40.63
51496;BME280;37572;52.094;4.870;2023-05-31T12:14:25;102583.19;;;27.64;40.54
51496;BME280;37572;52.094;4.870;2023-05-31T12:16:53;102578.44;;;27.78;40.03
51496;BME280;37572;52.094;4.870;2023-05-31T12:19:19;102574.06;;;27.89;39.97
51496;BME280;37572;52.094;4.870;2023-05-31T12:21:45;102568.66;;;28.01;39.49
51496;BME280;37572;52.094;4.870;2023-05-31T12:24:14;102568.25;;;28.16;39.43
51496;BME280;37572;52.094;4.870;2023-05-31T12:26:42;102569.16;;;28.28;39.51
51496;BME280;37572;52.094;4.870;2023-05-31T12:29:08;102562.13;;;28.32;38.88
51496;BME280;37572;52.094;4.870;2023-05-31T12:31:35;102555.47;;;28.28;38.44
51496;BME280;37572;52.094;4.870;2023-05-31T12:36:40;102567.97;;;28.05;38.48
51496;BME280;37572;52.094;4.870;2023-05-31T12:39:14;102558.44;;;27.96;38.46
51496;BME280;37572;52.094;4.870;2023-05-31T12:41:44;102549.59;;;27.94;38.94
51496;BME280;37572;52.094;4.870;2023-05-31T12:44:12;102556.91;;;28.00;38.67
51496;BME280;37572;52.094;4.870;2023-05-31T12:46:42;102550.41;;;28.13;38.72
51496;BME280;37572;52.094;4.870;2023-05-31T12:54:32;102547.59;;;28.86;37.99
51496;BME280;37572;52.094;4.870;2023-05-31T12:57:02;102550.63;;;29.20;37.46
51496;BME280;37572;52.094;4.870;2023-05-31T12:59:29;102551.25;;;29.50;37.37
51496;BME280;37572;52.094;4.870;2023-05-31T13:01:55;102541.88;;;29.75;36.39
51496;BME280;37572;52.094;4.870;2023-05-31T13:04:21;102535.91;;;29.90;36.01
51496;BME280;37572;52.094;4.870;2023-05-31T13:06:47;102530.59;;;30.00;35.80
51496;BME280;37572;52.094;4.870;2023-05-31T13:09:15;102539.75;;;30.06;35.73
51496;BME280;37572;52.094;4.870;2023-05-31T13:11:40;102538.09;;;30.05;35.58
51496;BME280;37572;52.094;4.870;2023-05-31T13:14:07;102530.97;;;29.92;35.73
51496;BME280;37572;52.094;4.870;2023-05-31T13:16:34;102533.22;;;29.66;35.82
51496;BME280;37572;52.094;4.870;2023-05-31T13:19:00;102536.28;;;29.41;36.23